Laquey, Missouri
Current Conditions -  °F | °C
As of 4:58 AM on Sunday 23 Nov 2014 (Local Time) from KTBN Reporting Station
Overcast Overcast  
Wind Chill: 12°   Ceiling: 2900
Heat Index: 12°   Visibility: 10mi
Dew Point: 10°   Wind: 12mph
Humidity: 91%   Direction: 150°SSE
Pressure: 29.69"   Gusts: NA
Location:  37.77°N, 92.3°W
Report Text: KTBN 231058Z AUTO 15010KT 10SM BKN029 BKN037 OVC044 12/10 A2969 RMK AO2 SLP055 T01180104
Loading
Personal Weather Stations






























Interactive Weather Map New forecast layout! Learn more

10-Day Weather Forecast

Advertisements
Track Severe Weather on mobile